Time;durP1;ratioP1;P1;durP2;ratioP2;P2;SDS_P1;SDS_P2;PMS_P1;PMS_P2;Temp;Humidity;BMP_temperature;BMP_pressure;BME280_temperature;BME280_humidity;BME280_pressure;Samples;Min_cycle;Max_cycle;Signal;HPM_P1;HPM_P2
2022/01/06 00:00:16;;;;;;;11.13;9.45;;;23.20;74.00;;;;;;6218329;28;83983;-68
2022/01/06 00:03:18;;;;;;;12.35;8.73;;;23.10;74.00;;;;;;6204473;28;84084;-69
2022/01/06 00:06:23;;;;;;;12.00;8.85;;;23.10;74.10;;;;;;6209165;28;82925;-70
2022/01/06 00:09:25;;;;;;;10.80;8.48;;;23.10;74.20;;;;;;6198084;28;84175;-69
2022/01/06 00:12:35;;;;;;;11.15;8.95;;;23.10;74.00;;;;;;6200410;28;82271;-70
2022/01/06 00:15:43;;;;;;;12.15;8.88;;;23.10;74.00;;;;;;6197703;28;82837;-69
2022/01/06 00:25:26;;;;;;;10.23;8.18;;;23.10;74.00;;;;;;6189247;28;82246;-69
2022/01/06 00:28:28;;;;;;;10.43;7.68;;;23.00;73.90;;;;;;6208594;28;83919;-69
2022/01/06 00:31:31;;;;;;;9.13;7.95;;;23.00;74.70;;;;;;6235252;28;82876;-68
2022/01/06 00:34:33;;;;;;;9.02;7.47;;;23.00;73.80;;;;;;6222236;28;84044;-68
2022/01/06 00:37:37;;;;;;;9.43;7.95;;;23.00;73.80;;;;;;6204159;28;83982;-69
2022/01/06 00:40:40;;;;;;;8.55;7.70;;;23.00;74.00;;;;;;6222363;28;84135;-70
2022/01/06 00:43:42;;;;;;;9.85;7.38;;;23.00;74.00;;;;;;6216358;28;83300;-69
2022/01/06 00:46:44;;;;;;;8.10;7.30;;;23.00;74.00;;;;;;6216412;28;83007;-69
2022/01/06 00:49:46;;;;;;;8.00;7.20;;;22.90;74.00;;;;;;6207237;28;84079;-68
2022/01/06 00:52:49;;;;;;;7.90;6.72;;;22.90;74.00;;;;;;6201252;28;83852;-70
2022/01/06 00:55:52;;;;;;;9.10;7.30;;;22.90;74.00;;;;;;6232400;28;84036;-69
2022/01/06 00:58:54;;;;;;;9.75;7.47;;;22.90;74.10;;;;;;6211542;28;83962;-69
2022/01/06 01:01:56;;;;;;;9.25;7.25;;;22.90;74.10;;;;;;6235708;28;83979;-69
2022/01/06 01:04:58;;;;;;;8.75;6.93;;;22.80;74.00;;;;;;6233345;28;84090;-68
2022/01/06 01:08:01;;;;;;;8.10;7.22;;;22.80;74.20;;;;;;6217499;28;84137;-68
2022/01/06 01:11:04;;;;;;;8.48;6.70;;;22.80;74.10;;;;;;6206250;28;82587;-69
2022/01/06 01:14:17;;;;;;;7.07;6.38;;;22.80;74.10;;;;;;6209338;28;83612;-69
2022/01/06 01:17:20;;;;;;;7.47;6.40;;;22.80;74.00;;;;;;6189181;28;84357;-68
2022/01/06 01:20:22;;;;;;;8.27;6.13;;;22.80;74.00;;;;;;6206871;28;83971;-69
2022/01/06 01:23:25;;;;;;;6.80;6.05;;;22.80;73.80;;;;;;6209963;28;85378;-68
2022/01/06 01:26:28;;;;;;;7.43;6.00;;;22.80;73.80;;;;;;6222787;28;84063;-69
2022/01/06 01:29:34;;;;;;;7.90;6.20;;;22.80;73.80;;;;;;6203373;28;84011;-69
2022/01/06 01:32:37;;;;;;;7.97;5.85;;;22.80;73.80;;;;;;6227597;28;83775;-70
2022/01/06 01:35:40;;;;;;;6.20;5.60;;;22.80;73.80;;;;;;6224789;28;84272;-68
2022/01/06 01:38:44;;;;;;;7.78;5.47;;;22.80;73.80;;;;;;6184677;28;84201;-69
2022/01/06 01:42:05;;;;;;;8.10;6.15;;;22.70;73.90;;;;;;6206791;28;83350;-69
2022/01/06 01:45:09;;;;;;;6.78;5.75;;;22.70;73.80;;;;;;6220589;28;83286;-69
2022/01/06 01:48:19;;;;;;;6.57;5.65;;;22.70;74.00;;;;;;6211002;28;83996;-69
2022/01/06 01:51:21;;;;;;;6.03;5.43;;;22.70;74.00;;;;;;6213116;28;82953;-69
2022/01/06 01:54:24;;;;;;;6.68;5.68;;;22.70;74.00;;;;;;6224288;28;85497;-70
2022/01/06 01:57:27;;;;;;;6.18;5.18;;;22.70;74.00;;;;;;6202035;28;82294;-70
2022/01/06 02:00:31;;;;;;;6.35;5.57;;;22.60;74.00;;;;;;6207513;28;84413;-68
2022/01/06 02:03:34;;;;;;;6.82;5.28;;;22.60;74.00;;;;;;6217304;28;83764;-69
2022/01/06 02:06:36;;;;;;;5.95;4.82;;;22.60;74.00;;;;;;6231126;28;84511;-69
2022/01/06 02:09:39;;;;;;;7.32;5.07;;;22.60;73.90;;;;;;6203609;28;84131;-70
2022/01/06 02:12:42;;;;;;;5.90;4.90;;;22.60;73.80;;;;;;6201086;28;84314;-69
2022/01/06 02:15:45;;;;;;;5.57;4.63;;;22.60;73.90;;;;;;6227772;28;83406;-67
2022/01/06 02:18:47;;;;;;;6.30;4.60;;;22.60;73.80;;;;;;6236185;28;84108;-69
2022/01/06 02:21:50;;;;;;;5.20;4.70;;;22.60;73.80;;;;;;6225298;28;84054;-69
2022/01/06 02:24:53;;;;;;;6.03;4.65;;;22.60;73.80;;;;;;6223582;28;84921;-69
2022/01/06 02:27:56;;;;;;;7.00;4.65;;;22.60;73.80;;;;;;6227913;28;84042;-69
2022/01/06 02:30:58;;;;;;;5.85;4.38;;;22.60;73.80;;;;;;6217591;28;84066;-69
2022/01/06 02:34:01;;;;;;;5.72;4.50;;;22.60;73.80;;;;;;6201954;28;84040;-69
2022/01/06 02:37:05;;;;;;;5.13;4.43;;;22.60;73.90;;;;;;6222805;28;83755;-69
2022/01/06 02:40:09;;;;;;;4.93;4.40;;;22.60;73.90;;;;;;6238177;28;84033;-69
2022/01/06 02:43:13;;;;;;;5.50;4.50;;;22.50;73.90;;;;;;6220273;28;84157;-70
2022/01/06 02:46:39;;;;;;;6.22;4.15;;;22.50;74.00;;;;;;6212920;28;83223;-69
2022/01/06 02:49:41;;;;;;;4.63;4.07;;;22.50;74.00;;;;;;6206149;28;84130;-69
2022/01/06 02:52:45;;;;;;;4.80;4.20;;;22.50;74.00;;;;;;6212935;28;84210;-69
2022/01/06 02:55:50;;;;;;;4.55;3.67;;;22.50;74.00;;;;;;6207756;28;84988;-69
2022/01/06 02:58:52;;;;;;;4.63;3.70;;;22.50;74.00;;;;;;6224144;28;84334;-69
2022/01/06 03:01:55;;;;;;;5.07;4.03;;;22.40;74.80;;;;;;6227854;28;82913;-69
2022/01/06 03:04:57;;;;;;;4.30;3.63;;;22.50;73.90;;;;;;6217566;28;84140;-69
2022/01/06 03:08:00;;;;;;;4.60;3.70;;;22.50;73.80;;;;;;6224491;28;84365;-69
2022/01/06 03:11:02;;;;;;;4.22;3.78;;;22.50;73.80;;;;;;6238312;28;84388;-69
2022/01/06 03:14:04;;;;;;;4.28;3.80;;;22.50;73.70;;;;;;6210885;28;82956;-69
2022/01/06 03:17:06;;;;;;;3.80;3.40;;;22.50;73.80;;;;;;6201251;28;83255;-69
2022/01/06 03:20:11;;;;;;;4.43;3.72;;;22.40;73.80;;;;;;6198795;28;84066;-69
2022/01/06 03:23:14;;;;;;;4.38;3.50;;;22.40;73.80;;;;;;6211537;28;83977;-69
2022/01/06 03:26:16;;;;;;;4.03;3.47;;;22.40;73.80;;;;;;6198513;28;85695;-69
2022/01/06 03:29:18;;;;;;;3.80;3.38;;;22.40;73.80;;;;;;6207498;28;86414;-69
2022/01/06 03:32:21;;;;;;;4.22;3.33;;;22.40;73.80;;;;;;6198074;28;83111;-69
2022/01/06 03:35:25;;;;;;;4.50;3.50;;;22.40;73.90;;;;;;6218909;28;84230;-69
2022/01/06 03:38:28;;;;;;;3.50;3.00;;;22.40;73.90;;;;;;6205428;28;84126;-69
2022/01/06 03:41:31;;;;;;;4.07;3.35;;;22.30;73.80;;;;;;6194669;28;82933;-69
2022/01/06 03:44:33;;;;;;;3.40;3.00;;;22.40;73.90;;;;;;6191715;28;84079;-69
2022/01/06 03:47:35;;;;;;;3.90;3.05;;;22.30;73.90;;;;;;6223329;28;83320;-69
2022/01/06 03:50:37;;;;;;;3.47;3.03;;;22.30;73.90;;;;;;6236628;28;84417;-69
2022/01/06 03:53:40;;;;;;;4.90;3.08;;;22.30;73.90;;;;;;6234612;28;83990;-70
2022/01/06 03:56:43;;;;;;;3.75;3.28;;;22.30;73.80;;;;;;6222099;28;85242;-69
2022/01/06 03:59:45;;;;;;;3.30;2.70;;;22.30;73.80;;;;;;6229597;28;84277;-69
2022/01/06 04:02:48;;;;;;;3.30;2.70;;;22.30;73.80;;;;;;6232096;28;83987;-68
2022/01/06 04:05:50;;;;;;;3.95;3.00;;;22.30;73.80;;;;;;6208534;28;84115;-69
2022/01/06 04:08:53;;;;;;;3.15;2.67;;;22.30;73.80;;;;;;6198284;28;84120;-69
2022/01/06 04:11:55;;;;;;;3.25;2.80;;;22.30;73.70;;;;;;6196777;28;82954;-69
2022/01/06 04:14:57;;;;;;;3.67;2.60;;;22.30;73.70;;;;;;6221459;28;83280;-69
2022/01/06 04:17:59;;;;;;;3.58;2.63;;;22.30;73.50;;;;;;6198845;28;83317;-68
2022/01/06 04:21:02;;;;;;;4.25;2.58;;;22.20;73.50;;;;;;6198161;28;84082;-68
2022/01/06 04:24:05;;;;;;;3.65;2.80;;;22.20;73.50;;;;;;6230685;28;84085;-69
2022/01/06 04:27:08;;;;;;;4.57;2.95;;;22.20;73.60;;;;;;6221794;28;84901;-69
2022/01/06 04:30:11;;;;;;;3.65;2.40;;;22.20;73.60;;;;;;6191245;28;84133;-69
2022/01/06 04:33:13;;;;;;;3.08;2.30;;;22.20;73.60;;;;;;6212939;28;82858;-69
2022/01/06 04:36:15;;;;;;;3.40;2.50;;;22.20;73.60;;;;;;6197846;28;84332;-69
2022/01/06 04:39:19;;;;;;;2.90;2.50;;;22.20;73.60;;;;;;6234825;28;84011;-68
2022/01/06 04:42:21;;;;;;;2.92;2.40;;;22.20;73.60;;;;;;6220740;28;84133;-69
2022/01/06 04:45:23;;;;;;;3.22;2.45;;;22.30;73.60;;;;;;6198353;28;84009;-69
2022/01/06 04:48:25;;;;;;;2.97;2.28;;;22.30;73.60;;;;;;6198113;28;83243;-68
2022/01/06 04:51:27;;;;;;;4.40;2.40;;;22.30;73.50;;;;;;6230238;28;84133;-70
2022/01/06 04:57:49;;;;;;;2.95;2.03;;;22.30;73.40;;;;;;6211036;28;83310;-70
2022/01/06 05:00:52;;;;;;;3.03;2.15;;;22.40;73.30;;;;;;6212734;28;84005;-70
2022/01/06 05:03:54;;;;;;;2.90;2.20;;;22.40;73.20;;;;;;6208246;28;83970;-69
2022/01/06 05:06:56;;;;;;;3.83;2.38;;;22.40;73.20;;;;;;6197653;28;84046;-69
2022/01/06 05:09:59;;;;;;;4.97;2.28;;;22.40;73.20;;;;;;6186872;28;83025;-70
2022/01/06 05:13:01;;;;;;;2.75;1.85;;;22.40;73.10;;;;;;6213520;28;81939;-69
2022/01/06 05:16:04;;;;;;;2.97;1.95;;;22.50;73.20;;;;;;6218762;28;84027;-69
2022/01/06 05:19:06;;;;;;;3.25;1.90;;;22.50;73.10;;;;;;6229606;28;83256;-69
2022/01/06 05:22:08;;;;;;;4.22;2.08;;;22.50;73.00;;;;;;6221678;28;83958;-69
2022/01/06 05:25:13;;;;;;;2.47;2.10;;;22.50;73.00;;;;;;6219764;28;83752;-69
2022/01/06 05:28:15;;;;;;;2.75;1.90;;;22.50;73.00;;;;;;6227708;28;85262;-69
2022/01/06 05:31:17;;;;;;;3.05;1.90;;;22.60;73.10;;;;;;6219081;28;84068;-70
2022/01/06 05:34:19;;;;;;;2.90;2.20;;;22.60;73.00;;;;;;6207245;28;84049;-69
2022/01/06 05:37:22;;;;;;;3.05;2.10;;;22.60;73.00;;;;;;6230467;28;83966;-68
2022/01/06 05:40:44;;;;;;;2.88;1.77;;;22.60;72.90;;;;;;6237430;28;84324;-69
2022/01/06 05:43:46;;;;;;;2.67;2.10;;;22.60;73.00;;;;;;6237536;28;83053;-69
2022/01/06 05:46:48;;;;;;;2.42;1.80;;;22.60;73.80;;;;;;6236878;28;84053;-69
2022/01/06 05:49:51;;;;;;;2.50;1.85;;;22.60;72.80;;;;;;6223215;28;83731;-69
2022/01/06 05:52:54;;;;;;;3.92;1.75;;;22.60;72.80;;;;;;6225361;28;83886;-69
2022/01/06 05:55:57;;;;;;;2.40;2.00;;;22.60;72.80;;;;;;6218967;28;83773;-69
2022/01/06 05:59:00;;;;;;;2.65;1.63;;;22.70;72.80;;;;;;6214271;28;84464;-69
2022/01/06 06:02:02;;;;;;;2.55;1.80;;;22.70;72.90;;;;;;6226410;28;84087;-68
2022/01/06 06:05:05;;;;;;;1.95;1.60;;;22.70;72.80;;;;;;6210467;28;84014;-69
2022/01/06 06:08:07;;;;;;;2.85;1.77;;;22.70;72.80;;;;;;6206246;28;83957;-69
2022/01/06 06:11:11;;;;;;;2.00;1.73;;;22.70;72.80;;;;;;6189224;28;84110;-69
2022/01/06 06:14:13;;;;;;;2.00;1.63;;;22.70;72.70;;;;;;6219598;28;82779;-69
2022/01/06 06:17:15;;;;;;;2.65;1.70;;;22.70;72.80;;;;;;6220594;28;83973;-69
2022/01/06 06:20:17;;;;;;;1.95;1.60;;;22.70;72.70;;;;;;6214585;28;83297;-69
2022/01/06 06:23:19;;;;;;;1.50;1.40;;;22.80;72.70;;;;;;6189909;28;84103;-70
2022/01/06 06:26:23;;;;;;;2.53;1.80;;;22.70;72.70;;;;;;6200506;28;84096;-70
2022/01/06 06:29:25;;;;;;;1.90;1.65;;;22.80;72.70;;;;;;6224700;28;85022;-69
2022/01/06 06:32:28;;;;;;;2.45;1.55;;;22.70;72.60;;;;;;6200473;28;83805;-68
2022/01/06 06:35:31;;;;;;;3.67;1.83;;;22.80;72.70;;;;;;6222293;28;84003;-69
2022/01/06 06:38:33;;;;;;;2.13;1.63;;;22.80;72.70;;;;;;6220803;28;84031;-69
2022/01/06 06:41:36;;;;;;;1.90;1.52;;;22.80;73.50;;;;;;6212135;28;84048;-69
2022/01/06 06:44:38;;;;;;;2.67;1.60;;;22.80;72.60;;;;;;6204633;28;84504;-69
2022/01/06 06:47:40;;;;;;;2.35;1.60;;;22.80;72.60;;;;;;6214672;28;84236;-70
2022/01/06 06:50:42;;;;;;;2.13;1.60;;;22.80;72.70;;;;;;6200521;28;83714;-69
2022/01/06 06:53:44;;;;;;;1.95;1.60;;;22.80;72.60;;;;;;6216676;28;84032;-69
2022/01/06 06:56:48;;;;;;;1.70;1.50;;;22.80;73.50;;;;;;6211607;28;82957;-69
2022/01/06 06:59:50;;;;;;;1.90;1.52;;;22.90;72.60;;;;;;6191471;28;84897;-69
2022/01/06 07:02:52;;;;;;;1.63;1.40;;;22.90;72.60;;;;;;6202392;28;84070;-68
2022/01/06 07:05:54;;;;;;;1.60;1.50;;;22.90;72.60;;;;;;6194659;28;83930;-69
2022/01/06 07:08:57;;;;;;;1.83;1.60;;;22.90;72.50;;;;;;6228111;28;83864;-69
2022/01/06 07:12:00;;;;;;;1.95;1.48;;;22.90;72.40;;;;;;6209628;28;84284;-68
2022/01/06 07:15:02;;;;;;;2.65;1.58;;;22.90;72.30;;;;;;6186084;28;84030;-68
2022/01/06 07:18:04;;;;;;;1.85;1.40;;;22.90;72.20;;;;;;6236006;28;82960;-69
2022/01/06 07:21:06;;;;;;;2.20;1.40;;;22.90;72.20;;;;;;6198825;28;83258;-69
2022/01/06 07:24:08;;;;;;;2.63;1.45;;;22.90;72.20;;;;;;6229211;28;84156;-67
2022/01/06 07:27:12;;;;;;;1.50;1.40;;;23.00;72.80;;;;;;6237359;28;84059;-66
2022/01/06 07:30:14;;;;;;;1.95;1.35;;;23.00;72.80;;;;;;6203752;28;85071;-66
2022/01/06 07:33:16;;;;;;;3.75;1.50;;;23.00;73.30;;;;;;6186658;28;84020;-66
2022/01/06 07:36:18;;;;;;;1.95;1.48;;;23.10;73.30;;;;;;6194298;28;82949;-67
2022/01/06 07:39:20;;;;;;;2.15;1.50;;;23.00;73.60;;;;;;6192578;28;84279;-67
2022/01/06 07:42:24;;;;;;;1.95;1.50;;;23.10;73.60;;;;;;6199747;28;84489;-66
2022/01/06 07:45:26;;;;;;;4.13;2.15;;;23.00;73.00;;;;;;6230956;28;82877;-66
2022/01/06 07:48:37;;;;;;;3.35;1.80;;;23.00;75.00;;;;;;6202281;28;83949;-66
2022/01/06 07:51:39;;;;;;;2.47;1.70;;;23.10;72.20;;;;;;6217303;28;83339;-67
2022/01/06 07:54:41;;;;;;;1.92;1.42;;;23.10;69.80;;;;;;6203202;28;84356;-67
2022/01/06 07:57:45;;;;;;;2.50;1.55;;;23.10;69.70;;;;;;6193914;28;83975;-67
2022/01/06 08:00:47;;;;;;;3.63;1.77;;;23.10;66.90;;;;;;6195269;28;85012;-67
2022/01/06 08:03:49;;;;;;;3.63;1.73;;;23.10;64.60;;;;;;6198352;28;84059;-68
2022/01/06 08:06:51;;;;;;;2.25;1.52;;;23.00;63.00;;;;;;6202518;28;84290;-68
2022/01/06 08:09:53;;;;;;;3.22;1.50;;;23.00;61.90;;;;;;6195553;28;84091;-67
2022/01/06 08:12:57;;;;;;;3.05;1.63;;;23.00;61.40;;;;;;6202418;28;84021;-68
2022/01/06 08:15:59;;;;;;;3.90;1.73;;;23.00;63.50;;;;;;6198974;28;84061;-67
2022/01/06 08:19:01;;;;;;;3.95;1.83;;;23.00;65.40;;;;;;6198457;28;84014;-69
2022/01/06 08:22:03;;;;;;;2.50;1.70;;;23.00;66.40;;;;;;6207279;28;83275;-67
2022/01/06 08:25:07;;;;;;;3.17;1.73;;;23.00;67.20;;;;;;6208344;28;84381;-68
2022/01/06 08:28:11;;;;;;;3.10;1.80;;;23.00;67.30;;;;;;6198987;28;84128;-67
2022/01/06 08:31:13;;;;;;;8.10;1.77;;;23.00;67.70;;;;;;6194067;28;84995;-68
2022/01/06 08:34:16;;;;;;;4.03;1.90;;;23.00;68.10;;;;;;6235152;28;84031;-68
2022/01/06 08:37:18;;;;;;;3.22;1.48;;;23.00;68.60;;;;;;6192643;28;83806;-68
2022/01/06 08:40:20;;;;;;;5.68;1.70;;;23.00;68.40;;;;;;6219781;28;82926;-68
2022/01/06 08:43:27;;;;;;;5.75;1.70;;;23.00;68.50;;;;;;6231514;28;84005;-68
2022/01/06 08:46:29;;;;;;;3.47;1.52;;;23.00;68.60;;;;;;6207646;28;84088;-68
2022/01/06 08:49:31;;;;;;;3.33;1.50;;;23.00;68.70;;;;;;6212452;28;84306;-67
2022/01/06 08:52:35;;;;;;;4.47;1.60;;;23.10;68.90;;;;;;6206151;28;82065;-68
2022/01/06 08:55:37;;;;;;;2.05;1.52;;;23.00;68.90;;;;;;6214868;28;83908;-68
2022/01/06 08:58:41;;;;;;;2.53;1.38;;;23.00;68.90;;;;;;6207485;28;84406;-68
2022/01/06 09:01:43;;;;;;;3.42;1.75;;;23.00;69.10;;;;;;6202325;28;85029;-67
2022/01/06 09:04:45;;;;;;;3.17;1.63;;;23.00;69.10;;;;;;6192741;28;83216;-68
2022/01/06 09:07:47;;;;;;;3.63;1.60;;;23.00;69.20;;;;;;6203891;28;84038;-68
2022/01/06 09:10:49;;;;;;;2.88;1.50;;;23.00;69.30;;;;;;6219875;28;82930;-68
2022/01/06 09:13:53;;;;;;;2.67;1.50;;;23.00;69.30;;;;;;6212317;28;84072;-68
2022/01/06 09:16:55;;;;;;;3.45;1.40;;;23.00;70.30;;;;;;6218917;28;84018;-68
2022/01/06 09:19:57;;;;;;;1.77;1.45;;;23.00;69.40;;;;;;6204897;28;83916;-69
2022/01/06 09:22:59;;;;;;;1.85;1.45;;;23.00;69.40;;;;;;6208695;28;82142;-67
2022/01/06 09:26:01;;;;;;;2.00;1.30;;;23.10;69.60;;;;;;6222833;28;84080;-67
2022/01/06 09:29:07;;;;;;;2.47;1.35;;;23.00;69.60;;;;;;6204188;28;84502;-67
2022/01/06 09:32:10;;;;;;;2.30;1.67;;;23.00;69.60;;;;;;6195616;28;86065;-68
2022/01/06 09:35:12;;;;;;;2.33;1.38;;;23.00;69.60;;;;;;6211426;28;84048;-68
2022/01/06 09:38:14;;;;;;;2.35;1.50;;;23.10;69.60;;;;;;6198995;28;82953;-67
2022/01/06 09:41:17;;;;;;;2.45;1.50;;;23.00;69.60;;;;;;6209583;28;84073;-68
2022/01/06 09:44:21;;;;;;;1.88;1.10;;;23.10;69.60;;;;;;6195684;28;83996;-68
2022/01/06 09:47:23;;;;;;;1.95;1.30;;;23.10;69.60;;;;;;6209509;28;83967;-68
2022/01/06 09:50:26;;;;;;;1.88;1.40;;;23.10;69.60;;;;;;6186909;28;84079;-68
2022/01/06 09:53:28;;;;;;;2.22;1.30;;;23.10;69.60;;;;;;6200763;28;83290;-68
2022/01/06 09:56:30;;;;;;;1.60;1.27;;;23.10;69.60;;;;;;6200917;28;84042;-68
2022/01/06 09:59:34;;;;;;;1.55;1.30;;;23.10;69.60;;;;;;6201473;28;84234;-68
2022/01/06 10:02:37;;;;;;;2.40;1.27;;;23.10;69.60;;;;;;6229248;28;84920;-68
2022/01/06 10:05:41;;;;;;;3.03;1.40;;;23.00;69.60;;;;;;6206031;28;84052;-68
2022/01/06 10:08:50;;;;;;;2.90;1.45;;;23.10;69.80;;;;;;6223554;28;82832;-69
2022/01/06 10:11:56;;;;;;;2.42;1.48;;;23.00;69.80;;;;;;6210468;28;84486;-68
2022/01/06 10:15:00;;;;;;;2.25;1.40;;;23.00;69.80;;;;;;6212243;28;83967;-67
2022/01/06 10:18:12;;;;;;;2.45;1.42;;;23.00;69.80;;;;;;6226086;28;83709;-68
2022/01/06 10:21:14;;;;;;;1.83;1.50;;;23.00;69.80;;;;;;6229491;28;84325;-68
2022/01/06 10:24:17;;;;;;;1.98;1.58;;;23.00;69.90;;;;;;6202567;28;83269;-68
2022/01/06 10:27:22;;;;;;;1.70;1.50;;;23.00;69.90;;;;;;6209327;28;84140;-68
2022/01/06 10:30:26;;;;;;;1.95;1.60;;;23.00;70.00;;;;;;6223594;28;84132;-68
2022/01/06 10:33:36;;;;;;;2.42;1.70;;;23.00;70.00;;;;;;6225636;28;84964;-68
2022/01/06 10:36:39;;;;;;;2.72;1.80;;;23.00;70.10;;;;;;6206839;28;82877;-68
2022/01/06 10:39:42;;;;;;;2.58;2.00;;;23.00;70.20;;;;;;6203469;28;84118;-68
2022/01/06 10:42:48;;;;;;;3.15;1.73;;;22.90;70.30;;;;;;6232933;28;84065;-68
2022/01/06 10:46:01;;;;;;;2.83;1.90;;;22.90;70.50;;;;;;6201508;28;84201;-68
2022/01/06 10:49:06;;;;;;;2.08;1.83;;;22.90;70.60;;;;;;6218217;28;84077;-68
2022/01/06 10:52:08;;;;;;;1.90;1.77;;;22.90;70.60;;;;;;6189788;28;84441;-68
2022/01/06 10:55:16;;;;;;;2.05;1.85;;;22.90;70.80;;;;;;6238554;28;82564;-68
2022/01/06 10:58:20;;;;;;;2.50;2.08;;;22.90;70.80;;;;;;6223815;28;84112;-68
2022/01/06 11:01:23;;;;;;;2.15;1.70;;;22.90;70.90;;;;;;6218320;28;84100;-67
2022/01/06 11:04:25;;;;;;;2.30;2.10;;;22.90;71.00;;;;;;6223510;28;84999;-68
2022/01/06 11:07:27;;;;;;;2.90;2.10;;;22.80;70.90;;;;;;6208565;28;84017;-68
2022/01/06 11:10:30;;;;;;;2.40;2.20;;;22.90;71.00;;;;;;6202592;28;83985;-68
2022/01/06 11:13:32;;;;;;;2.35;2.15;;;22.90;70.90;;;;;;6210280;28;83959;-68
2022/01/06 11:16:35;;;;;;;2.72;2.22;;;22.90;71.00;;;;;;6199575;28;84102;-67
2022/01/06 11:19:37;;;;;;;2.45;2.25;;;22.90;70.90;;;;;;6219828;28;84146;-68
2022/01/06 11:22:49;;;;;;;2.75;2.42;;;22.90;70.90;;;;;;6211715;28;84156;-68
2022/01/06 11:26:05;;;;;;;3.15;2.63;;;22.90;70.80;;;;;;6233308;28;83254;-68
2022/01/06 11:29:08;;;;;;;3.00;2.42;;;22.90;70.80;;;;;;6237126;28;83954;-67
2022/01/06 11:32:21;;;;;;;3.10;2.42;;;22.90;70.80;;;;;;6236597;28;84280;-68
2022/01/06 11:35:23;;;;;;;3.15;2.50;;;23.00;70.80;;;;;;6231651;28;84987;-67
2022/01/06 11:38:27;;;;;;;2.67;2.47;;;22.90;70.70;;;;;;6222403;28;83038;-69
2022/01/06 11:41:33;;;;;;;2.88;2.58;;;23.00;70.70;;;;;;6202602;28;84400;-68
2022/01/06 11:44:35;;;;;;;2.80;2.50;;;23.00;70.60;;;;;;6221992;28;81965;-67
2022/01/06 11:47:40;;;;;;;2.67;2.47;;;22.90;70.60;;;;;;6201227;28;84491;-68
2022/01/06 11:50:45;;;;;;;2.75;2.45;;;23.00;70.60;;;;;;6201528;28;84298;-68
2022/01/06 11:53:47;;;;;;;3.17;2.88;;;23.00;70.60;;;;;;6195922;28;84096;-67
2022/01/06 11:56:52;;;;;;;3.33;3.00;;;23.00;70.60;;;;;;6199949;28;83338;-68
2022/01/06 11:59:53;;;;;;;3.25;2.70;;;23.00;70.60;;;;;;6196669;28;84432;-68
2022/01/06 12:03:02;;;;;;;3.17;2.88;;;23.00;70.60;;;;;;6222100;28;84131;-68
2022/01/06 12:06:05;;;;;;;2.80;2.60;;;23.00;70.60;;;;;;6197191;28;83900;-68
2022/01/06 12:09:16;;;;;;;2.83;2.58;;;23.00;70.60;;;;;;6211494;28;84070;-68
2022/01/06 12:12:18;;;;;;;2.90;2.55;;;23.00;70.60;;;;;;6226969;28;84102;-68
2022/01/06 12:15:21;;;;;;;3.10;2.80;;;23.00;70.60;;;;;;6233251;28;84141;-68
2022/01/06 12:18:26;;;;;;;3.22;2.92;;;23.00;70.60;;;;;;6209952;28;84002;-67
2022/01/06 12:21:29;;;;;;;3.13;2.83;;;23.00;70.60;;;;;;6192773;28;84010;-68
2022/01/06 12:24:31;;;;;;;2.85;2.65;;;23.00;70.60;;;;;;6186731;28;84003;-68
2022/01/06 12:27:43;;;;;;;3.15;2.85;;;23.00;70.60;;;;;;6212996;28;83049;-68
2022/01/06 12:30:46;;;;;;;3.10;2.80;;;23.00;70.60;;;;;;6213199;28;82961;-68
2022/01/06 12:33:50;;;;;;;3.03;2.72;;;23.10;70.60;;;;;;6218689;28;83014;-68
2022/01/06 12:36:52;;;;;;;3.25;2.95;;;23.10;70.60;;;;;;6217535;28;85000;-68
2022/01/06 12:39:55;;;;;;;3.13;2.83;;;23.00;70.60;;;;;;6222371;28;84316;-68
2022/01/06 12:42:57;;;;;;;3.15;2.85;;;23.10;70.60;;;;;;6185032;28;84454;-68
2022/01/06 12:46:06;;;;;;;3.25;2.92;;;23.10;70.60;;;;;;6203151;28;84049;-68
2022/01/06 12:49:10;;;;;;;3.25;3.00;;;23.10;70.60;;;;;;6216113;28;83645;-68
2022/01/06 12:52:12;;;;;;;3.28;2.97;;;23.10;70.60;;;;;;6188111;28;84224;-66
2022/01/06 12:55:14;;;;;;;3.70;3.40;;;23.10;70.60;;;;;;6208968;28;83995;-68
2022/01/06 12:58:25;;;;;;;3.40;3.10;;;23.10;70.50;;;;;;6204074;28;82940;-68
2022/01/06 13:01:28;;;;;;;3.50;3.20;;;23.10;70.50;;;;;;6205397;28;82803;-68
2022/01/06 13:04:32;;;;;;;3.50;3.20;;;23.10;70.50;;;;;;6216062;28;84122;-68
2022/01/06 13:07:34;;;;;;;3.60;3.30;;;23.10;70.60;;;;;;6210820;28;84963;-68
2022/01/06 13:10:36;;;;;;;3.80;3.50;;;23.10;70.50;;;;;;6186509;28;84422;-68
2022/01/06 13:13:49;;;;;;;4.13;3.72;;;23.10;70.50;;;;;;6188566;28;84109;-68
2022/01/06 13:16:51;;;;;;;3.80;3.50;;;23.10;70.50;;;;;;6204661;28;83621;-68
2022/01/06 13:19:58;;;;;;;3.78;3.47;;;23.10;70.50;;;;;;6215002;28;84093;-67
2022/01/06 13:23:41;;;;;;;3.83;3.47;;;23.10;70.50;;;;;;6184732;28;84036;-67
2022/01/06 13:26:45;;;;;;;4.43;4.03;;;23.10;70.50;;;;;;6188731;28;83536;-67
2022/01/06 13:29:52;;;;;;;5.13;4.00;;;23.10;70.50;;;;;;6232689;28;83581;-68
2022/01/06 13:32:57;;;;;;;4.38;3.97;;;23.10;70.50;;;;;;6209140;28;84123;-67
2022/01/06 13:36:01;;;;;;;4.50;4.10;;;23.20;70.50;;;;;;6202358;28;82925;-68
2022/01/06 13:39:11;;;;;;;5.30;4.80;;;23.10;70.50;;;;;;6209619;28;84901;-67
2022/01/06 13:42:27;;;;;;;5.05;4.55;;;23.10;70.50;;;;;;6210634;28;84026;-67
2022/01/06 13:45:36;;;;;;;5.97;5.38;;;23.10;70.50;;;;;;6185480;28;84053;-67
2022/01/06 13:48:43;;;;;;;5.65;5.15;;;23.10;70.50;;;;;;6200611;28;84118;-68
2022/01/06 13:51:46;;;;;;;5.68;5.18;;;23.10;70.50;;;;;;6189231;28;86250;-67
2022/01/06 13:54:48;;;;;;;5.70;5.20;;;23.20;70.60;;;;;;6222188;28;83042;-68
2022/01/06 13:57:50;;;;;;;6.13;5.53;;;23.10;70.50;;;;;;6222726;28;84597;-69
2022/01/06 14:00:53;;;;;;;6.22;5.63;;;23.20;70.60;;;;;;6238074;28;82184;-68
2022/01/06 14:03:55;;;;;;;6.57;6.00;;;23.20;70.60;;;;;;6224333;28;83950;-68
2022/01/06 14:06:59;;;;;;;6.20;5.60;;;23.10;70.50;;;;;;6199279;28;84058;-67
2022/01/06 14:10:05;;;;;;;6.38;5.78;;;23.20;70.60;;;;;;6211315;28;85330;-68
2022/01/06 14:13:07;;;;;;;6.10;5.57;;;23.20;70.60;;;;;;6209822;28;83747;-67
2022/01/06 14:16:10;;;;;;;6.45;5.85;;;23.20;70.60;;;;;;6217286;28;84031;-68
2022/01/06 14:19:12;;;;;;;6.45;5.85;;;23.20;70.60;;;;;;6205825;28;82830;-68
2022/01/06 14:22:16;;;;;;;7.20;6.50;;;23.20;70.60;;;;;;6217442;28;84016;-68
2022/01/06 14:25:18;;;;;;;6.72;6.13;;;23.20;70.50;;;;;;6220089;28;84362;-68
2022/01/06 14:28:20;;;;;;;7.55;6.75;;;23.20;70.50;;;;;;6222965;28;83999;-67
2022/01/06 14:31:22;;;;;;;7.15;6.45;;;23.20;70.50;;;;;;6206979;28;83107;-68
2022/01/06 14:34:24;;;;;;;7.35;6.70;;;23.10;70.50;;;;;;6236675;28;84162;-67
2022/01/06 14:37:27;;;;;;;7.32;6.63;;;23.20;70.60;;;;;;6187297;28;83966;-68
2022/01/06 14:40:29;;;;;;;7.20;6.50;;;23.20;70.60;;;;;;6236621;28;84914;-68
2022/01/06 14:43:31;;;;;;;7.95;7.15;;;23.30;70.60;;;;;;6217816;28;83989;-67
2022/01/06 14:46:33;;;;;;;8.00;7.22;;;23.20;70.50;;;;;;6207399;28;84374;-68
2022/01/06 14:49:35;;;;;;;7.75;7.05;;;23.20;70.50;;;;;;6214096;28;84393;-68
2022/01/06 14:52:44;;;;;;;8.13;7.32;;;23.20;70.50;;;;;;6231070;28;82937;-67
2022/01/06 14:55:46;;;;;;;8.20;7.30;;;23.20;70.50;;;;;;6211905;28;84474;-68
2022/01/06 14:58:48;;;;;;;7.80;7.07;;;23.30;70.60;;;;;;6201537;28;83987;-68
2022/01/06 15:01:50;;;;;;;8.20;7.40;;;23.20;70.60;;;;;;6219360;28;83328;-67
2022/01/06 15:04:52;;;;;;;7.93;7.18;;;23.20;70.60;;;;;;6236398;28;82952;-67
2022/01/06 15:07:56;;;;;;;8.38;7.45;;;23.20;70.60;;;;;;6207221;28;83775;-68
2022/01/06 15:10:58;;;;;;;8.02;7.28;;;23.30;70.60;;;;;;6186792;28;84962;-68
2022/01/06 15:14:00;;;;;;;9.02;8.10;;;23.20;70.50;;;;;;6213829;28;84390;-68
2022/01/06 15:17:03;;;;;;;8.50;7.70;;;23.30;70.60;;;;;;6216837;28;83958;-68
2022/01/06 15:20:06;;;;;;;8.52;7.63;;;23.20;70.50;;;;;;6219890;28;83953;-68
2022/01/06 15:23:09;;;;;;;8.82;7.93;;;23.30;70.60;;;;;;6222655;28;84385;-66
2022/01/06 15:26:11;;;;;;;8.43;7.63;;;23.20;70.50;;;;;;6188077;28;84098;-68
2022/01/06 15:29:13;;;;;;;8.48;7.68;;;23.30;71.50;;;;;;6208247;28;84680;-67
2022/01/06 15:32:16;;;;;;;9.02;8.18;;;23.30;70.50;;;;;;6226293;28;82200;-68
2022/01/06 15:35:18;;;;;;;9.20;8.30;;;23.30;70.50;;;;;;6217343;28;84492;-68
2022/01/06 15:38:22;;;;;;;8.82;8.02;;;23.30;70.50;;;;;;6191526;28;84403;-66
2022/01/06 15:41:24;;;;;;;8.80;7.90;;;23.30;70.40;;;;;;6192524;28;85079;-68
2022/01/06 15:44:26;;;;;;;9.20;8.27;;;23.30;70.40;;;;;;6197830;28;82915;-67
2022/01/06 15:47:29;;;;;;;8.73;7.85;;;23.30;70.40;;;;;;6203822;28;84037;-66
2022/01/06 15:50:32;;;;;;;8.98;8.07;;;23.30;70.40;;;;;;6196356;28;84053;-67
2022/01/06 15:53:35;;;;;;;8.40;7.50;;;23.30;70.50;;;;;;6198969;28;84135;-68
2022/01/06 15:56:38;;;;;;;8.85;8.05;;;23.20;70.40;;;;;;6203685;28;84307;-67
2022/01/06 15:59:48;;;;;;;9.02;8.10;;;23.30;70.50;;;;;;6231095;28;88787;-67
2022/01/06 16:06:10;;;;;;;8.45;7.65;;;23.30;70.40;;;;;;6215879;28;87188;-68